createdAt,value
2023-05-21T00:04:33.186Z,15.06
2023-05-21T00:09:51.414Z,14.94
2023-05-21T00:15:09.823Z,14.94
2023-05-21T00:20:28.198Z,14.94
2023-05-21T00:25:46.619Z,15
2023-05-21T00:31:04.789Z,14.94
2023-05-21T00:36:23.180Z,14.94
2023-05-21T00:41:41.386Z,14.75
2023-05-21T00:46:59.625Z,14.75
2023-05-21T00:52:17.937Z,14.81
2023-05-21T00:57:36.150Z,14.75
2023-05-21T01:02:54.517Z,14.81
2023-05-21T01:08:13.425Z,14.75
2023-05-21T01:13:31.722Z,14.94
2023-05-21T01:18:50.139Z,14.75
2023-05-21T01:24:08.284Z,14.81
2023-05-21T01:29:26.923Z,14.75
2023-05-21T01:34:45.269Z,14.81
2023-05-21T01:40:03.695Z,14.69
2023-05-21T01:45:22.079Z,14.69
2023-05-21T01:50:40.410Z,14.56
2023-05-21T01:55:58.687Z,14.63
2023-05-21T02:01:16.962Z,14.5
2023-05-21T02:06:35.187Z,14.38
2023-05-21T02:11:53.559Z,14.44
2023-05-21T02:17:11.849Z,14.38
2023-05-21T02:22:30.031Z,14.31
2023-05-21T02:27:48.379Z,14.38
2023-05-21T02:33:06.877Z,14.44
2023-05-21T02:38:25.229Z,14.44
2023-05-21T02:43:43.505Z,14.44
2023-05-21T02:49:01.656Z,14.44
2023-05-21T02:54:19.955Z,14.44
2023-05-21T02:59:38.228Z,14.5
2023-05-21T03:04:56.472Z,14.5
2023-05-21T03:10:14.740Z,14.5
2023-05-21T03:15:33.086Z,14.63
2023-05-21T03:20:51.372Z,14.5
2023-05-21T03:26:09.607Z,14.44
2023-05-21T03:31:27.854Z,14.38
2023-05-21T03:36:46.408Z,14.31
2023-05-21T03:42:04.841Z,14.25
2023-05-21T03:47:23.088Z,14.19
2023-05-21T03:52:41.711Z,14.13
2023-05-21T03:58:00.193Z,14.13
2023-05-21T04:03:18.663Z,14.19
2023-05-21T04:08:36.760Z,14.19
2023-05-21T04:13:54.997Z,14.25
2023-05-21T04:19:13.710Z,14.25
2023-05-21T04:24:32.363Z,14.25
2023-05-21T04:29:51.006Z,14.25
2023-05-21T04:35:09.674Z,14.25
2023-05-21T04:40:28.405Z,14.31
2023-05-21T04:45:47.148Z,14.38
2023-05-21T04:51:05.846Z,14.44
2023-05-21T04:56:24.290Z,14.44
2023-05-21T05:01:42.908Z,14.5
2023-05-21T05:07:01.229Z,14.5
2023-05-21T05:12:19.807Z,14.56
2023-05-21T05:17:38.479Z,14.56
2023-05-21T05:22:57.253Z,14.56
2023-05-21T05:28:15.738Z,14.56
2023-05-21T05:33:34.254Z,14.63
2023-05-21T05:38:52.487Z,14.5
2023-05-21T05:44:11.145Z,14.56
2023-05-21T05:49:29.888Z,14.63
2023-05-21T05:54:48.483Z,14.56
2023-05-21T06:00:06.940Z,14.63
2023-05-21T06:05:25.630Z,14.69
2023-05-21T06:10:44.331Z,14.87
2023-05-21T06:16:02.640Z,15
2023-05-21T06:21:21.382Z,15.19
2023-05-21T06:26:40.267Z,15.5
2023-05-21T06:31:58.989Z,15.69
2023-05-21T06:37:17.441Z,16
2023-05-21T06:42:36.675Z,16.37
2023-05-21T06:47:54.983Z,16.69
2023-05-21T06:53:13.323Z,17.06
2023-05-21T06:58:31.727Z,17.31
2023-05-21T07:03:50.574Z,17.5
2023-05-21T07:09:09.303Z,17.62
2023-05-21T07:14:29.358Z,18.12
2023-05-21T07:19:48.006Z,18.44
2023-05-21T07:25:07.632Z,18.94
2023-05-21T07:30:26.413Z,19.25
2023-05-21T07:35:45.338Z,19.5
2023-05-21T07:41:05.042Z,19.62
2023-05-21T07:46:23.428Z,19.56
2023-05-21T07:51:41.665Z,19.94
2023-05-21T07:57:00.344Z,20.19
2023-05-21T08:02:19.012Z,20.31
2023-05-21T08:07:37.178Z,20.37
2023-05-21T08:12:55.803Z,21.25
2023-05-21T08:23:21.360Z,21.87
2023-05-21T08:28:39.527Z,21.87
2023-05-21T08:33:58.069Z,21.44
2023-05-21T08:39:16.813Z,21.56
2023-05-21T08:44:35.580Z,22.06
2023-05-21T08:49:54.401Z,22.25
2023-05-21T08:55:13.239Z,22.69
2023-05-21T09:00:31.939Z,22.87
2023-05-21T09:05:50.794Z,23.69
2023-05-21T09:11:09.320Z,24.69
2023-05-21T09:16:28.248Z,24.75
2023-05-21T09:21:47.068Z,24.94
2023-05-21T09:27:05.731Z,24.75
2023-05-21T09:32:24.521Z,25.31
2023-05-21T09:37:43.022Z,25.19
2023-05-21T09:43:01.562Z,24.94
2023-05-21T09:48:20.074Z,25.12
2023-05-21T09:53:38.341Z,25.37
2023-05-21T09:58:56.518Z,25.12
2023-05-21T10:04:15.211Z,24.63
2023-05-21T10:09:33.727Z,24.5
2023-05-21T10:14:52.376Z,24.5
2023-05-21T10:20:10.988Z,24.12
2023-05-21T10:25:29.728Z,24.37
2023-05-21T10:30:48.539Z,24.75
2023-05-21T10:36:07.404Z,25.5
2023-05-21T10:41:26.235Z,25.44
2023-05-21T10:46:44.572Z,25.56
2023-05-21T10:52:02.865Z,26.06
2023-05-21T10:57:21.563Z,26.12
2023-05-21T11:02:40.404Z,26.37
2023-05-21T11:07:59.968Z,27.13
2023-05-21T11:13:18.442Z,26.94
2023-05-21T11:18:37.328Z,26.5
2023-05-21T11:23:56.207Z,27.25
2023-05-21T11:29:15.123Z,27.5
2023-05-21T11:34:33.834Z,27.94
2023-05-21T11:39:52.465Z,27.81
2023-05-21T11:45:11.793Z,28.44
2023-05-21T11:50:31.077Z,28.38
2023-05-21T11:55:50.009Z,28.81
2023-05-21T12:01:09.214Z,28.56
2023-05-21T12:06:27.936Z,28.56
2023-05-21T12:11:46.687Z,28.69
2023-05-21T12:17:05.150Z,28.75
2023-05-21T12:22:23.562Z,29.06
2023-05-21T12:27:41.734Z,27.94
2023-05-21T12:33:04.626Z,28.62
2023-05-21T12:38:23.704Z,28.5
2023-05-21T12:43:42.448Z,29.25
2023-05-21T12:49:00.783Z,29
2023-05-21T12:54:18.475Z,29
2023-05-21T12:59:36.869Z,28.87
2023-05-21T13:04:55.258Z,28.62
2023-05-21T13:10:13.945Z,28.56
2023-05-21T13:15:32.842Z,28.25
2023-05-21T13:20:51.669Z,28.69
2023-05-21T13:26:09.930Z,28.75
2023-05-21T13:31:28.214Z,28.81
2023-05-21T13:36:46.391Z,28.81
2023-05-21T13:42:04.438Z,27.94
2023-05-21T13:47:23.916Z,28.19
2023-05-21T13:52:42.654Z,28.44
2023-05-21T13:58:01.671Z,28.62
2023-05-21T14:03:20.391Z,28.94
2023-05-21T14:08:38.949Z,28.19
2023-05-21T14:13:57.140Z,28.25
2023-05-21T14:19:15.525Z,27.75
2023-05-21T14:24:34.055Z,27.75
2023-05-21T14:29:52.596Z,27.06
2023-05-21T14:35:11.142Z,27.13
2023-05-21T14:40:29.736Z,27
2023-05-21T14:45:48.410Z,26.94
2023-05-21T14:51:06.640Z,27
2023-05-21T14:56:24.922Z,26.81
2023-05-21T15:01:43.742Z,26.44
2023-05-21T15:07:01.805Z,26.62
2023-05-21T15:12:19.999Z,26.81
2023-05-21T15:17:39.026Z,27
2023-05-21T15:28:21.314Z,27.06
2023-05-21T15:33:40.017Z,26.81
2023-05-21T15:38:59.743Z,26.81
2023-05-21T15:44:18.435Z,26.5
2023-05-21T15:49:38.324Z,27
2023-05-21T15:54:57.027Z,27
2023-05-21T16:00:15.548Z,26.94
2023-05-21T16:10:42.064Z,26.94
2023-05-21T16:16:00.763Z,26.94
2023-05-21T16:21:19.451Z,27.19
2023-05-21T16:26:37.747Z,27.06
2023-05-21T16:31:56.261Z,27.25
2023-05-21T16:37:14.615Z,27.13
2023-05-21T16:42:33.376Z,27.13
2023-05-21T16:47:51.940Z,27.19
2023-05-21T16:53:10.647Z,27.13
2023-05-21T16:58:29.238Z,26.75
2023-05-21T17:03:47.787Z,26.37
2023-05-21T17:09:05.834Z,26.37
2023-05-21T17:14:33.629Z,26.44
2023-05-21T17:19:44.588Z,26.12
2023-05-21T17:25:01.801Z,26
2023-05-21T17:30:20.386Z,25.56
2023-05-21T17:35:41.196Z,25.69
2023-05-21T17:40:57.078Z,25.31
2023-05-21T17:46:15.596Z,25
2023-05-21T17:51:33.930Z,24.69
2023-05-21T17:56:52.443Z,24.44
2023-05-21T18:02:10.977Z,24.25
2023-05-21T18:07:29.125Z,23.87
2023-05-21T18:12:47.100Z,23.56
2023-05-21T18:18:05.783Z,23.31
2023-05-21T18:23:24.228Z,23.06
2023-05-21T18:28:42.382Z,22.87
2023-05-21T18:34:00.875Z,22.5
2023-05-21T18:39:19.543Z,22.25
2023-05-21T18:44:37.799Z,21.94
2023-05-21T18:49:56.309Z,21.69
2023-05-21T18:55:14.393Z,21.37
2023-05-21T19:00:32.640Z,21.19
2023-05-21T19:05:51.076Z,20.94
2023-05-21T19:11:09.657Z,20.75
2023-05-21T19:16:28.330Z,20.62
2023-05-21T19:21:46.957Z,20.37
2023-05-21T19:27:05.636Z,20.25
2023-05-21T19:32:24.377Z,20.06
2023-05-21T19:37:43.190Z,19.81
2023-05-21T19:43:01.762Z,19.56
2023-05-21T19:53:27.169Z,19.31
2023-05-21T19:58:45.734Z,19.19
2023-05-21T20:04:04.397Z,19.19
2023-05-21T20:09:23.029Z,19
2023-05-21T20:14:41.629Z,18.87
2023-05-21T20:20:00.486Z,18.81
2023-05-21T20:25:19.234Z,18.69
2023-05-21T20:30:38.063Z,18.56
2023-05-21T20:35:56.525Z,18.5
2023-05-21T20:41:15.315Z,18.44
2023-05-21T20:46:33.812Z,18.31
2023-05-21T20:51:52.396Z,18.25
2023-05-21T20:57:10.750Z,18.19
2023-05-21T21:02:29.340Z,18.12
2023-05-21T21:07:47.957Z,18
2023-05-21T21:13:06.527Z,17.87
2023-05-21T21:18:25.365Z,17.87
2023-05-21T21:23:44.963Z,17.75
2023-05-21T21:29:03.806Z,17.69
2023-05-21T21:34:22.508Z,17.62
2023-05-21T21:39:41.109Z,17.69
2023-05-21T21:45:00.728Z,17.56
2023-05-21T21:50:20.460Z,17.44
2023-05-21T21:55:39.154Z,17.25
2023-05-21T22:00:57.408Z,17
2023-05-21T22:06:15.915Z,16.94
2023-05-21T22:11:34.588Z,16.81
2023-05-21T22:16:53.350Z,16.69
2023-05-21T22:22:12.947Z,16.62
2023-05-21T22:27:31.112Z,16.62
2023-05-21T22:32:49.268Z,16.56
2023-05-21T22:38:09.764Z,16.56
2023-05-21T22:43:29.135Z,16.44
2023-05-21T22:48:48.852Z,16.44
2023-05-21T22:54:07.446Z,16.31
2023-05-21T22:59:26.048Z,16.31
2023-05-21T23:04:44.841Z,16.25
2023-05-21T23:10:04.201Z,16.06
2023-05-21T23:15:22.796Z,15.94
2023-05-21T23:20:41.996Z,15.69
2023-05-21T23:25:59.673Z,15.56
2023-05-21T23:31:18.302Z,15.38
2023-05-21T23:36:37.099Z,15.25
2023-05-21T23:41:55.728Z,15.25
2023-05-21T23:47:14.562Z,16
2023-05-21T23:52:33.440Z,15.88
2023-05-21T23:57:51.957Z,15.56
